^^
Grace C. Lehan Memorial Weather Station Historical Data
Daily Summary for August 9, 2022 Units:  Both    English   Metric
Daily Weekly Monthly Yearly
  High: Low: Average:
Temperature: 47.4 °F /  8.6 °C 31.9 °F /  -0.1 °C 37.3 °F /  2.9 °C
Dew Point: 29.7 °F /  -1.3 °C 16 °F /  -8.9 °C 23.9 °F /  -4.5 °C
Humidity: 80% 36% 60%
Wind Speed: 6.3mph /  10.1km/h - 1.1mph /  1.8km/h
Wind Gust: 17mph /  27.4km/h - -
Wind- - West
Pressure: 30.29 in /  1025.6 hPa 30.21 in /  1022.9 hPa -
Precipitation: 0.00 in /  0 mm    
 
 
Tabular Data for August 9, 2022
Time Temperature Dew Point Pressure Wind Wind Speed Wind Gust Humidity Rainfall Rate (Hourly) solar
00:04 36.8 °F /  2.7 °C 29.6 °F /  -1.3 °C 30.22in /  1023.2hPa Calm   7mph /  11.3km/h 75% 0.00in /  0mm 0 W/m2
00:09 36.8 °F /  2.7 °C 29.6 °F /  -1.3 °C 30.22in /  1023.2hPa NNW 0.3mph /  0.5km/h 5mph /  8km/h 75% 0.00in /  0mm 0 W/m2
00:14 36.7 °F /  2.6 °C 29.7 °F /  -1.3 °C 30.22in /  1023.2hPa NNW 0.3mph /  0.5km/h 5mph /  8km/h 75.6% 0.00in /  0mm 0 W/m2
00:19 36.6 °F /  2.6 °C 29.7 °F /  -1.3 °C 30.22in /  1023.2hPa Calm   5mph /  8km/h 76% 0.00in /  0mm 0 W/m2
00:24 36.5 °F /  2.5 °C 29.6 °F /  -1.3 °C 30.22in /  1023.2hPa NNW 0.3mph /  0.5km/h 5mph /  8km/h 76% 0.00in /  0mm 0 W/m2
00:29 36.3 °F /  2.4 °C 29.6 °F /  -1.3 °C 30.22in /  1023.2hPa NNW 0.3mph /  0.5km/h 5mph /  8km/h 76.3% 0.00in /  0mm 0 W/m2
00:34 36.2 °F /  2.3 °C 29.7 °F /  -1.3 °C 30.22in /  1023.2hPa NNW 1.2mph /  1.9km/h 5mph /  8km/h 77% 0.00in /  0mm 0 W/m2
00:39 36.1 °F /  2.3 °C 29.6 °F /  -1.3 °C 30.22in /  1023.2hPa NNW 0.6mph /  1km/h 5mph /  8km/h 77% 0.00in /  0mm 0 W/m2
00:44 36 °F /  2.2 °C 29.6 °F /  -1.3 °C 30.22in /  1023.2hPa NNW 1.7mph /  2.7km/h 5mph /  8km/h 77.4% 0.00in /  0mm 0 W/m2
00:49 35.9 °F /  2.2 °C 29.7 °F /  -1.3 °C 30.22in /  1023.2hPa NNW 2.7mph /  4.3km/h 9mph /  14.5km/h 78% 0.00in /  0mm 0 W/m2
00:54 35.9 °F /  2.2 °C 29.4 °F /  -1.4 °C 30.22in /  1023.2hPa NNW 0.7mph /  1.1km/h 9mph /  14.5km/h 77.1% 0.00in /  0mm 0 W/m2
00:59 35.8 °F /  2.1 °C 29.4 °F /  -1.4 °C 30.22in /  1023.2hPa North 1.3mph /  2.1km/h 9mph /  14.5km/h 77% 0.00in /  0mm 0 W/m2
01:04 35.8 °F /  2.1 °C 29.3 °F /  -1.5 °C 30.22in /  1023.2hPa NNW 2.2mph /  3.5km/h 11mph /  17.7km/h 77% 0.00in /  0mm 0 W/m2
01:09 35.8 °F /  2.1 °C 29.3 °F /  -1.5 °C 30.22in /  1023.2hPa NNW 1mph /  1.6km/h 11mph /  17.7km/h 77% 0.00in /  0mm 0 W/m2
01:14 35.7 °F /  2.1 °C 29 °F /  -1.7 °C 30.23in /  1023.6hPa North 0.4mph /  0.6km/h 11mph /  17.7km/h 76.3% 0.00in /  0mm 0 W/m2
01:19 35.7 °F /  2.1 °C 28.9 °F /  -1.7 °C 30.23in /  1023.6hPa North 1.9mph /  3.1km/h 11mph /  17.7km/h 76% 0.00in /  0mm 0 W/m2
01:24 35.7 °F /  2.1 °C 28.9 °F /  -1.7 °C 30.23in /  1023.6hPa NNW 1.1mph /  1.8km/h 11mph /  17.7km/h 76% 0.00in /  0mm 0 W/m2
01:29 35.6 °F /  2 °C 28.8 °F /  -1.8 °C 30.23in /  1023.6hPa NNW 0.8mph /  1.3km/h 11mph /  17.7km/h 76% 0.00in /  0mm 0 W/m2
01:34 35.6 °F /  2 °C 28.6 °F /  -1.9 °C 30.23in /  1023.6hPa NW 0.7mph /  1.1km/h 11mph /  17.7km/h 75.4% 0.00in /  0mm 0 W/m2
01:39 35.5 °F /  1.9 °C 28.4 °F /  -2 °C 30.23in /  1023.6hPa NW 1.4mph /  2.3km/h 12mph /  19.3km/h 75% 0.00in /  0mm 0 W/m2
01:44 35.4 °F /  1.9 °C 28.2 °F /  -2.1 °C 30.24in /  1023.9hPa NW 0.8mph /  1.3km/h 12mph /  19.3km/h 74.7% 0.00in /  0mm 0 W/m2
01:49 35.4 °F /  1.9 °C 27.9 °F /  -2.3 °C 30.24in /  1023.9hPa NW 1mph /  1.6km/h 12mph /  19.3km/h 74% 0.00in /  0mm 0 W/m2
01:54 35.3 °F /  1.8 °C 27.9 °F /  -2.3 °C 30.24in /  1023.9hPa NNW 1.8mph /  2.9km/h 12mph /  19.3km/h 74% 0.00in /  0mm 0 W/m2
01:59 35.3 °F /  1.8 °C 27.9 °F /  -2.3 °C 30.24in /  1023.9hPa NNW 0.3mph /  0.5km/h 12mph /  19.3km/h 74% 0.00in /  0mm 0 W/m2
02:04 35.2 °F /  1.8 °C 27.8 °F /  -2.3 °C 30.24in /  1023.9hPa NNW 0.2mph /  0.3km/h 12mph /  19.3km/h 74% 0.00in /  0mm 0 W/m2
02:09 35.1 °F /  1.7 °C 27.7 °F /  -2.4 °C 30.25in /  1024.3hPa NNE 0.6mph /  1km/h 5mph /  8km/h 74% 0.00in /  0mm 0 W/m2
02:14 35.1 °F /  1.7 °C 27.6 °F /  -2.4 °C 30.25in /  1024.3hPa NNE 0.2mph /  0.3km/h 5mph /  8km/h 74% 0.00in /  0mm 0 W/m2
02:19 35 °F /  1.7 °C 27.6 °F /  -2.4 °C 30.25in /  1024.3hPa NNE 0.1mph /  0.2km/h 5mph /  8km/h 74% 0.00in /  0mm 0 W/m2
02:24 34.9 °F /  1.6 °C 27.5 °F /  -2.5 °C 30.25in /  1024.3hPa NNE 0.5mph /  0.8km/h 5mph /  8km/h 74% 0.00in /  0mm 0 W/m2
02:29 34.8 °F /  1.6 °C 27.4 °F /  -2.6 °C 30.25in /  1024.3hPa NNE 0.1mph /  0.2km/h 5mph /  8km/h 74% 0.00in /  0mm 0 W/m2
02:34 34.8 °F /  1.6 °C 27.4 °F /  -2.6 °C 30.25in /  1024.3hPa NNE 0.1mph /  0.2km/h 5mph /  8km/h 74% 0.00in /  0mm 0 W/m2
02:39 34.7 °F /  1.5 °C 27.3 °F /  -2.6 °C 30.25in /  1024.3hPa Calm   2mph /  3.2km/h 74% 0.00in /  0mm 0 W/m2
02:44 34.6 °F /  1.4 °C 27.2 °F /  -2.7 °C 30.25in /  1024.3hPa Calm   2mph /  3.2km/h 74% 0.00in /  0mm 0 W/m2
02:49 34.5 °F /  1.4 °C 27.1 °F /  -2.7 °C 30.25in /  1024.3hPa NNE 0.1mph /  0.2km/h 2mph /  3.2km/h 74% 0.00in /  0mm 0 W/m2
02:54 34.4 °F /  1.3 °C 27 °F /  -2.8 °C 30.25in /  1024.3hPa NNE 0.2mph /  0.3km/h 2mph /  3.2km/h 74.1% 0.00in /  0mm 0 W/m2
02:59 34.3 °F /  1.3 °C 27.2 °F /  -2.7 °C 30.25in /  1024.3hPa Calm   2mph /  3.2km/h 75% 0.00in /  0mm 0 W/m2
03:04 34.1 °F /  1.2 °C 27.1 °F /  -2.7 °C 30.25in /  1024.3hPa NNE 0.2mph /  0.3km/h 3mph /  4.8km/h 75% 0.00in /  0mm 0 W/m2
03:09 34 °F /  1.1 °C 27.2 °F /  -2.7 °C 30.25in /  1024.3hPa NNE 0.2mph /  0.3km/h 3mph /  4.8km/h 75.7% 0.00in /  0mm 0 W/m2
03:14 33.9 °F /  1.1 °C 27.1 °F /  -2.7 °C 30.24in /  1023.9hPa NNE 0.1mph /  0.2km/h 3mph /  4.8km/h 76% 0.00in /  0mm 0 W/m2
03:19 33.8 °F /  1 °C 27 °F /  -2.8 °C 30.25in /  1024.3hPa NNE 0.1mph /  0.2km/h 3mph /  4.8km/h 76% 0.00in /  0mm 0 W/m2
03:24 33.7 °F /  0.9 °C 26.9 °F /  -2.8 °C 30.24in /  1023.9hPa NNE 0.2mph /  0.3km/h 3mph /  4.8km/h 76% 0.00in /  0mm 0 W/m2
03:29 33.6 °F /  0.9 °C 26.9 °F /  -2.8 °C 30.25in /  1024.3hPa Calm   3mph /  4.8km/h 76.3% 0.00in /  0mm 0 W/m2
03:34 33.5 °F /  0.8 °C 27.1 °F /  -2.7 °C 30.25in /  1024.3hPa NNE 0.2mph /  0.3km/h 3mph /  4.8km/h 77% 0.00in /  0mm 0 W/m2
03:39 33.4 °F /  0.8 °C 27 °F /  -2.8 °C 30.24in /  1023.9hPa NNE 0.2mph /  0.3km/h 4mph /  6.4km/h 77% 0.00in /  0mm 0 W/m2
03:44 33.3 °F /  0.7 °C 26.9 °F /  -2.8 °C 30.24in /  1023.9hPa Calm   4mph /  6.4km/h 77% 0.00in /  0mm 0 W/m2
03:49 33.2 °F /  0.7 °C 26.8 °F /  -2.9 °C 30.24in /  1023.9hPa Calm   4mph /  6.4km/h 77% 0.00in /  0mm 0 W/m2
03:54 33.1 °F /  0.6 °C 26.9 °F /  -2.8 °C 30.24in /  1023.9hPa Calm   4mph /  6.4km/h 77.5% 0.00in /  0mm 0 W/m2
03:59 33 °F /  0.6 °C 26.9 °F /  -2.8 °C 30.24in /  1023.9hPa Calm   4mph /  6.4km/h 78% 0.00in /  0mm 0 W/m2
04:04 32.8 °F /  0.4 °C 26.7 °F /  -2.9 °C 30.23in /  1023.6hPa Calm     78% 0.00in /  0mm 0 W/m2
04:09 32.8 °F /  0.4 °C 26.7 °F /  -2.9 °C 30.23in /  1023.6hPa Calm     78% 0.00in /  0mm 0 W/m2
04:14 32.6 °F /  0.3 °C 26.5 °F /  -3.1 °C 30.23in /  1023.6hPa Calm     78% 0.00in /  0mm 0 W/m2
04:19 32.5 °F /  0.3 °C 26.6 °F /  -3 °C 30.23in /  1023.6hPa NNE 0.2mph /  0.3km/h 2mph /  3.2km/h 78.5% 0.00in /  0mm 0 W/m2
04:24 32.5 °F /  0.3 °C 26.6 °F /  -3 °C 30.23in /  1023.6hPa Calm   2mph /  3.2km/h 78.7% 0.00in /  0mm 0 W/m2
04:29 32.4 °F /  0.2 °C 26.6 °F /  -3 °C 30.23in /  1023.6hPa NNE 0.1mph /  0.2km/h 2mph /  3.2km/h 79% 0.00in /  0mm 0 W/m2
04:34 32.4 °F /  0.2 °C 26.6 °F /  -3 °C 30.23in /  1023.6hPa Calm   2mph /  3.2km/h 79% 0.00in /  0mm 0 W/m2
04:39 32.4 °F /  0.2 °C 26.6 °F /  -3 °C 30.23in /  1023.6hPa Calm     79% 0.00in /  0mm 0 W/m2
04:44 32.3 °F /  0.2 °C 26.5 °F /  -3.1 °C 30.24in /  1023.9hPa Calm     79% 0.00in /  0mm 0 W/m2
04:49 32.3 °F /  0.2 °C 26.5 °F /  -3.1 °C 30.24in /  1023.9hPa Calm     79% 0.00in /  0mm 0 W/m2
04:54 32.2 °F /  0.1 °C 26.5 °F /  -3.1 °C 30.24in /  1023.9hPa Calm     79% 0.00in /  0mm 0 W/m2
04:59 32.2 °F /  0.1 °C 26.4 °F /  -3.1 °C 30.23in /  1023.6hPa Calm     79% 0.00in /  0mm 0 W/m2
05:04 32.1 °F /  0.1 °C 26.3 °F /  -3.2 °C 30.24in /  1023.9hPa Calm     79% 0.00in /  0mm 0 W/m2
05:09 32.1 °F /  0.1 °C 26.4 °F /  -3.1 °C 30.24in /  1023.9hPa Calm     79.1% 0.00in /  0mm 0 W/m2
05:14 32 °F /  0 °C 26.5 °F /  -3.1 °C 30.24in /  1023.9hPa Calm     80% 0.00in /  0mm 0 W/m2
05:19 32 °F /  0 °C 26.5 °F /  -3.1 °C 30.24in /  1023.9hPa Calm   1mph /  1.6km/h 80% 0.00in /  0mm 0 W/m2
05:24 31.9 °F /  -0.1 °C 26.5 °F /  -3.1 °C 30.24in /  1023.9hPa NNE 0.2mph /  0.3km/h 2mph /  3.2km/h 80% 0.00in /  0mm 0 W/m2
05:29 31.9 °F /  -0.1 °C 26.4 °F /  -3.1 °C 30.24in /  1023.9hPa Calm   2mph /  3.2km/h 80% 0.00in /  0mm 0 W/m2
05:34 31.9 °F /  -0.1 °C 26.4 °F /  -3.1 °C 30.24in /  1023.9hPa NNE 0.2mph /  0.3km/h 2mph /  3.2km/h 80% 0.00in /  0mm 0 W/m2
05:39 31.9 °F /  -0.1 °C 26.5 °F /  -3.1 °C 30.24in /  1023.9hPa NNE 0.1mph /  0.2km/h 3mph /  4.8km/h 80% 0.00in /  0mm 0 W/m2
05:44 32 °F /  0 °C 26.5 °F /  -3.1 °C 30.24in /  1023.9hPa NNE 0.1mph /  0.2km/h 3mph /  4.8km/h 80% 0.00in /  0mm 0 W/m2
05:49 32.1 °F /  0.1 °C 26.4 °F /  -3.1 °C 30.25in /  1024.3hPa NNE 0.2mph /  0.3km/h 3mph /  4.8km/h 79.2% 0.00in /  0mm 0 W/m2
05:54 32.1 °F /  0.1 °C 26.3 °F /  -3.2 °C 30.24in /  1023.9hPa Calm   3mph /  4.8km/h 79% 0.00in /  0mm 0 W/m2
05:59 32.1 °F /  0.1 °C 26.3 °F /  -3.2 °C 30.24in /  1023.9hPa NNE 0.3mph /  0.5km/h 4mph /  6.4km/h 79% 0.00in /  0mm 0 W/m2
06:04 32.1 °F /  0.1 °C 26.3 °F /  -3.2 °C 30.24in /  1023.9hPa NNE 0.7mph /  1.1km/h 6mph /  9.7km/h 79% 0.00in /  0mm 0 W/m2
06:09 32.2 °F /  0.1 °C 26.4 °F /  -3.1 °C 30.24in /  1023.9hPa North 0.8mph /  1.3km/h 6mph /  9.7km/h 79% 0.00in /  0mm 0 W/m2
06:14 32.2 °F /  0.1 °C 26.5 °F /  -3.1 °C 30.24in /  1023.9hPa North 0.9mph /  1.4km/h 6mph /  9.7km/h 79% 0.00in /  0mm 0 W/m2
06:19 32.3 °F /  0.2 °C 26.5 °F /  -3.1 °C 30.25in /  1024.3hPa NNW 1.2mph /  1.9km/h 7mph /  11.3km/h 79% 0.00in /  0mm 0 W/m2
06:24 32.4 °F /  0.2 °C 26.4 °F /  -3.1 °C 30.25in /  1024.3hPa NNW 0.9mph /  1.4km/h 7mph /  11.3km/h 78.4% 0.00in /  0mm 0 W/m2
06:29 32.5 °F /  0.3 °C 26.4 °F /  -3.1 °C 30.25in /  1024.3hPa NNW 0.1mph /  0.2km/h 7mph /  11.3km/h 78% 0.00in /  0mm 0 W/m2
06:34 32.5 °F /  0.3 °C 26.4 °F /  -3.1 °C 30.25in /  1024.3hPa NNW 0.6mph /  1km/h 7mph /  11.3km/h 78% 0.00in /  0mm 0 W/m2
06:39 32.5 °F /  0.3 °C 26.4 °F /  -3.1 °C 30.25in /  1024.3hPa NNW 0.7mph /  1.1km/h 4mph /  6.4km/h 78% 0.00in /  0mm 0 W/m2
06:44 32.5 °F /  0.3 °C 26.4 °F /  -3.1 °C 30.26in /  1024.6hPa NNW 0.4mph /  0.6km/h 4mph /  6.4km/h 78% 0.00in /  0mm 0 W/m2
06:49 32.5 °F /  0.3 °C 26.4 °F /  -3.1 °C 30.26in /  1024.6hPa NNW 1.1mph /  1.8km/h 4mph /  6.4km/h 78% 0.00in /  0mm 0 W/m2
06:54 32.6 °F /  0.3 °C 26.4 °F /  -3.1 °C 30.26in /  1024.6hPa NNW 0.9mph /  1.4km/h 5mph /  8km/h 77.7% 0.00in /  0mm 0 W/m2
06:59 32.7 °F /  0.4 °C 26.4 °F /  -3.1 °C 30.25in /  1024.3hPa NNW 1.3mph /  2.1km/h 10mph /  16.1km/h 77.5% 0.00in /  0mm 0 W/m2
07:04 32.8 °F /  0.4 °C 26.4 °F /  -3.1 °C 30.25in /  1024.3hPa NNW 1mph /  1.6km/h 10mph /  16.1km/h 77% 0.00in /  0mm 5 W/m2
07:09 32.8 °F /  0.4 °C 26.4 °F /  -3.1 °C 30.25in /  1024.3hPa NNW 1.4mph /  2.3km/h 7mph /  11.3km/h 77% 0.00in /  0mm 7 W/m2
07:14 32.9 °F /  0.5 °C 26.5 °F /  -3.1 °C 30.25in /  1024.3hPa NNW 1.4mph /  2.3km/h 7mph /  11.3km/h 77% 0.00in /  0mm 9 W/m2
07:19 32.9 °F /  0.5 °C 26.5 °F /  -3.1 °C 30.25in /  1024.3hPa NNW 1.1mph /  1.8km/h 7mph /  11.3km/h 77% 0.00in /  0mm 11 W/m2
07:24 33 °F /  0.6 °C 26.6 °F /  -3 °C 30.25in /  1024.3hPa NNW 0.4mph /  0.6km/h 7mph /  11.3km/h 77% 0.00in /  0mm 12 W/m2
07:29 33 °F /  0.6 °C 26.6 °F /  -3 °C 30.25in /  1024.3hPa NNW 0.5mph /  0.8km/h 7mph /  11.3km/h 77% 0.00in /  0mm 18 W/m2
07:34 33.1 °F /  0.6 °C 26.7 °F /  -2.9 °C 30.25in /  1024.3hPa NNW 0.5mph /  0.8km/h 7mph /  11.3km/h 77% 0.00in /  0mm 33 W/m2
07:39 33.3 °F /  0.7 °C 26.8 °F /  -2.9 °C 30.25in /  1024.3hPa NNW 1.1mph /  1.8km/h 6mph /  9.7km/h 77% 0.00in /  0mm 60 W/m2
07:44 33.7 °F /  0.9 °C 27.2 °F /  -2.7 °C 30.25in /  1024.3hPa North 1.8mph /  2.9km/h 7mph /  11.3km/h 77% 0.00in /  0mm 70 W/m2
07:49 34.3 °F /  1.3 °C 27.8 °F /  -2.3 °C 30.25in /  1024.3hPa NNW 0.9mph /  1.4km/h 7mph /  11.3km/h 76.8% 0.00in /  0mm 86 W/m2
07:54 34.9 °F /  1.6 °C 28 °F /  -2.2 °C 30.25in /  1024.3hPa NNW 2.1mph /  3.4km/h 8mph /  12.9km/h 75.7% 0.00in /  0mm 86 W/m2
07:59 35.4 °F /  1.9 °C 28.2 °F /  -2.1 °C 30.25in /  1024.3hPa NNW 1.1mph /  1.8km/h 8mph /  12.9km/h 74.5% 0.00in /  0mm 91 W/m2
08:09 36.5 °F /  2.5 °C 28.5 °F /  -1.9 °C 30.25in /  1024.3hPa NNW 2.4mph /  3.9km/h 10mph /  16.1km/h 72.5% 0.00in /  0mm 127 W/m2
08:14 36.9 °F /  2.7 °C 28.4 °F /  -2 °C 30.25in /  1024.3hPa NNW 3.1mph /  5km/h 10mph /  16.1km/h 71.1% 0.00in /  0mm 121 W/m2
08:19 37.3 °F /  2.9 °C 28.4 °F /  -2 °C 30.25in /  1024.3hPa NNW 1.6mph /  2.6km/h 10mph /  16.1km/h 70% 0.00in /  0mm 144 W/m2
08:24 37.6 °F /  3.1 °C 28.5 °F /  -1.9 °C 30.25in /  1024.3hPa NW 2mph /  3.2km/h 11mph /  17.7km/h 69.5% 0.00in /  0mm 178 W/m2
08:29 37.8 °F /  3.2 °C 28.6 °F /  -1.9 °C 30.25in /  1024.3hPa NNW 2.1mph /  3.4km/h 11mph /  17.7km/h 69% 0.00in /  0mm 148 W/m2
08:34 38 °F /  3.3 °C 28.3 °F /  -2.1 °C 30.25in /  1024.3hPa NNW 3.9mph /  6.3km/h 11mph /  17.7km/h 67.8% 0.00in /  0mm 176 W/m2
08:39 38.1 °F /  3.4 °C 28.3 °F /  -2.1 °C 30.25in /  1024.3hPa NNW 2.4mph /  3.9km/h 11mph /  17.7km/h 67.7% 0.00in /  0mm 197 W/m2
08:44 38.3 °F /  3.5 °C 28.4 °F /  -2 °C 30.26in /  1024.6hPa NNW 1mph /  1.6km/h 11mph /  17.7km/h 67.2% 0.00in /  0mm 183 W/m2
08:49 38.4 °F /  3.6 °C 28.4 °F /  -2 °C 30.26in /  1024.6hPa NNE 1.3mph /  2.1km/h 11mph /  17.7km/h 67% 0.00in /  0mm 204 W/m2
08:54 38.7 °F /  3.7 °C 28.7 °F /  -1.8 °C 30.26in /  1024.6hPa NNW 2.8mph /  4.5km/h 12mph /  19.3km/h 67% 0.00in /  0mm 197 W/m2
08:59 39 °F /  3.9 °C 28.6 °F /  -1.9 °C 30.26in /  1024.6hPa North 1.7mph /  2.7km/h 12mph /  19.3km/h 66.1% 0.00in /  0mm 132 W/m2
09:04 39.1 °F /  3.9 °C 28.4 °F /  -2 °C 30.25in /  1024.3hPa North 3.7mph /  6km/h 12mph /  19.3km/h 65.1% 0.00in /  0mm 153 W/m2
09:09 39 °F /  3.9 °C 28 °F /  -2.2 °C 30.26in /  1024.6hPa NNW 2.5mph /  4km/h 13mph /  20.9km/h 64.3% 0.00in /  0mm 195 W/m2
09:14 39 °F /  3.9 °C 28.2 °F /  -2.1 °C 30.26in /  1024.6hPa North 3mph /  4.8km/h 13mph /  20.9km/h 64.9% 0.00in /  0mm 156 W/m2
09:19 39 °F /  3.9 °C 27.8 °F /  -2.3 °C 30.26in /  1024.6hPa North 1.7mph /  2.7km/h 13mph /  20.9km/h 64% 0.00in /  0mm 171 W/m2
09:24 39.1 °F /  3.9 °C 28.1 °F /  -2.2 °C 30.26in /  1024.6hPa North 1.9mph /  3.1km/h 13mph /  20.9km/h 64.3% 0.00in /  0mm 162 W/m2
09:29 39.1 °F /  3.9 °C 28 °F /  -2.2 °C 30.26in /  1024.6hPa North 1.3mph /  2.1km/h 13mph /  20.9km/h 64% 0.00in /  0mm 113 W/m2
09:34 39.2 °F /  4 °C 27.7 °F /  -2.4 °C 30.25in /  1024.3hPa North 2.5mph /  4km/h 13mph /  20.9km/h 63.2% 0.00in /  0mm 120 W/m2
09:39 39.1 °F /  3.9 °C 27.6 °F /  -2.4 °C 30.26in /  1024.6hPa North 3.8mph /  6.1km/h 11mph /  17.7km/h 63.2% 0.00in /  0mm 120 W/m2
09:44 39.1 °F /  3.9 °C 27.3 °F /  -2.6 °C 30.26in /  1024.6hPa North 4.6mph /  7.4km/h 12mph /  19.3km/h 62.2% 0.00in /  0mm 81 W/m2
09:49 39.1 °F /  3.9 °C 27.2 °F /  -2.7 °C 30.26in /  1024.6hPa North 3.5mph /  5.6km/h 17mph /  27.4km/h 62% 0.00in /  0mm 88 W/m2
09:54 39.1 °F /  3.9 °C 27.1 °F /  -2.7 °C 30.26in /  1024.6hPa North 4mph /  6.4km/h 17mph /  27.4km/h 61.8% 0.00in /  0mm 141 W/m2
09:59 39.2 °F /  4 °C 26.9 °F /  -2.8 °C 30.26in /  1024.6hPa NNW 2.9mph /  4.7km/h 17mph /  27.4km/h 61% 0.00in /  0mm 141 W/m2
10:04 39.5 °F /  4.2 °C 27 °F /  -2.8 °C 30.26in /  1024.6hPa North 3mph /  4.8km/h 17mph /  27.4km/h 60.7% 0.00in /  0mm 248 W/m2
10:09 39.9 °F /  4.4 °C 27.2 °F /  -2.7 °C 30.26in /  1024.6hPa NNE 2.3mph /  3.7km/h 14mph /  22.5km/h 60% 0.00in /  0mm 304 W/m2
10:14 40.6 °F /  4.8 °C 27.5 °F /  -2.5 °C 30.26in /  1024.6hPa North 3.2mph /  5.1km/h 14mph /  22.5km/h 59% 0.00in /  0mm 420 W/m2
10:19 41.4 °F /  5.2 °C 27.5 °F /  -2.5 °C 30.26in /  1024.6hPa North 4mph /  6.4km/h 14mph /  22.5km/h 57.4% 0.00in /  0mm 434 W/m2
10:24 42.2 °F /  5.7 °C 27.7 °F /  -2.4 °C 30.26in /  1024.6hPa North 2.7mph /  4.3km/h 14mph /  22.5km/h 56.1% 0.00in /  0mm 439 W/m2
10:29 42.9 °F /  6.1 °C 27.3 °F /  -2.6 °C 30.26in /  1024.6hPa NNE 1.7mph /  2.7km/h 14mph /  22.5km/h 53.8% 0.00in /  0mm 432 W/m2
10:34 43.3 °F /  6.3 °C 27.6 °F /  -2.4 °C 30.26in /  1024.6hPa NNE 1mph /  1.6km/h 14mph /  22.5km/h 53.7% 0.00in /  0mm 330 W/m2
10:39 43.9 °F /  6.6 °C 28.7 °F /  -1.8 °C 30.25in /  1024.3hPa NNW 1.4mph /  2.3km/h 7mph /  11.3km/h 54.8% 0.00in /  0mm 230 W/m2
10:44 44.4 °F /  6.9 °C 28.1 °F /  -2.2 °C 30.25in /  1024.3hPa NW 3.5mph /  5.6km/h 13mph /  20.9km/h 52.4% 0.00in /  0mm 213 W/m2
10:49 44.4 °F /  6.9 °C 27.4 °F /  -2.6 °C 30.25in /  1024.3hPa North 3.5mph /  5.6km/h 13mph /  20.9km/h 51% 0.00in /  0mm 172 W/m2
10:54 44.2 °F /  6.8 °C 27.2 °F /  -2.7 °C 30.25in /  1024.3hPa NNW 2.4mph /  3.9km/h 13mph /  20.9km/h 50.9% 0.00in /  0mm 179 W/m2
10:59 44.1 °F /  6.7 °C 27.2 °F /  -2.7 °C 30.25in /  1024.3hPa NNW 5.1mph /  8.2km/h 14mph /  22.5km/h 51.2% 0.00in /  0mm 218 W/m2
11:04 44.1 °F /  6.7 °C 27.1 °F /  -2.7 °C 30.24in /  1023.9hPa NNW 3mph /  4.8km/h 14mph /  22.5km/h 51% 0.00in /  0mm 181 W/m2
11:09 44 °F /  6.7 °C 26.9 °F /  -2.8 °C 30.24in /  1023.9hPa NNW 4mph /  6.4km/h 13mph /  20.9km/h 50.6% 0.00in /  0mm 65 W/m2
11:14 43.9 °F /  6.6 °C 26.5 °F /  -3.1 °C 30.23in /  1023.6hPa North 1.8mph /  2.9km/h 13mph /  20.9km/h 50% 0.00in /  0mm 62 W/m2
11:19 44 °F /  6.7 °C 26.4 °F /  -3.1 °C 30.23in /  1023.6hPa NNE 1.3mph /  2.1km/h 13mph /  20.9km/h 49.8% 0.00in /  0mm 93 W/m2
11:24 44.1 °F /  6.7 °C 26.6 °F /  -3 °C 30.23in /  1023.6hPa NNW 0.7mph /  1.1km/h 13mph /  20.9km/h 49.8% 0.00in /  0mm 135 W/m2
11:29 44.3 °F /  6.8 °C 26.5 °F /  -3.1 °C 30.23in /  1023.6hPa NNW 2.4mph /  3.9km/h 13mph /  20.9km/h 49.2% 0.00in /  0mm 271 W/m2
11:34 44.6 °F /  7 °C 26.5 °F /  -3.1 °C 30.23in /  1023.6hPa NNW 2.8mph /  4.5km/h 13mph /  20.9km/h 48.6% 0.00in /  0mm 239 W/m2
11:39 44.9 °F /  7.2 °C 26.4 °F /  -3.1 °C 30.23in /  1023.6hPa NNW 3.5mph /  5.6km/h 14mph /  22.5km/h 47.8% 0.00in /  0mm 264 W/m2
11:44 45.1 °F /  7.3 °C 26.4 °F /  -3.1 °C 30.23in /  1023.6hPa NNW 4.4mph /  7.1km/h 14mph /  22.5km/h 47.5% 0.00in /  0mm 257 W/m2
11:49 45.4 °F /  7.4 °C 26.3 °F /  -3.2 °C 30.23in /  1023.6hPa NNW 3.2mph /  5.1km/h 14mph /  22.5km/h 47% 0.00in /  0mm 323 W/m2
11:54 45.6 °F /  7.6 °C 25.8 °F /  -3.4 °C 30.22in /  1023.2hPa North 2.2mph /  3.5km/h 14mph /  22.5km/h 45.5% 0.00in /  0mm 257 W/m2
11:59 45.7 °F /  7.6 °C 25.5 °F /  -3.6 °C 30.22in /  1023.2hPa NNW 4.1mph /  6.6km/h 14mph /  22.5km/h 45% 0.00in /  0mm 320 W/m2
12:00 45.6 °F /  7.6 °C 25.5 °F /  -3.6 °C 30.22in /  1023.2hPa NNW 4mph /  6.4km/h 14mph /  22.5km/h 45% 0.00in /  0mm 58 W/m2
12:09 45.9 °F /  7.7 °C 25.6 °F /  -3.6 °C 30.22in /  1023.2hPa North 2.1mph /  3.4km/h 7mph /  11.3km/h 44.7% 0.00in /  0mm 471 W/m2
12:14 46 °F /  7.8 °C 25.3 °F /  -3.7 °C 30.22in /  1023.2hPa NNW 4.6mph /  7.4km/h 12mph /  19.3km/h 44% 0.00in /  0mm 378 W/m2
12:19 46 °F /  7.8 °C 24.8 °F /  -4 °C 30.22in /  1023.2hPa NNW 4.7mph /  7.6km/h 14mph /  22.5km/h 43% 0.00in /  0mm 271 W/m2
12:24 46 °F /  7.8 °C 24.8 °F /  -4 °C 30.22in /  1023.2hPa NNW 1.8mph /  2.9km/h 14mph /  22.5km/h 43% 0.00in /  0mm 156 W/m2
12:29 46.1 °F /  7.8 °C 25 °F /  -3.9 °C 30.22in /  1023.2hPa North 2.5mph /  4km/h 14mph /  22.5km/h 43.3% 0.00in /  0mm 128 W/m2
12:34 46.4 °F /  8 °C 24.6 °F /  -4.1 °C 30.22in /  1023.2hPa North 3.9mph /  6.3km/h 14mph /  22.5km/h 42.1% 0.00in /  0mm 253 W/m2
12:39 46.7 °F /  8.2 °C 24.3 °F /  -4.3 °C 30.22in /  1023.2hPa NNW 3.1mph /  5km/h 13mph /  20.9km/h 41% 0.00in /  0mm 332 W/m2
12:44 47 °F /  8.3 °C 24.3 °F /  -4.3 °C 30.21in /  1022.9hPa NNE 2.4mph /  3.9km/h 13mph /  20.9km/h 40.6% 0.00in /  0mm 257 W/m2
12:49 47 °F /  8.3 °C 23.8 °F /  -4.6 °C 30.21in /  1022.9hPa NNW 3mph /  4.8km/h 13mph /  20.9km/h 39.6% 0.00in /  0mm 290 W/m2
12:54 47.1 °F /  8.4 °C 23.2 °F /  -4.9 °C 30.21in /  1022.9hPa NNW 2.7mph /  4.3km/h 13mph /  20.9km/h 38.6% 0.00in /  0mm 134 W/m2
12:59 47.1 °F /  8.4 °C 23.6 °F /  -4.7 °C 30.21in /  1022.9hPa North 1.9mph /  3.1km/h 13mph /  20.9km/h 39.3% 0.00in /  0mm 362 W/m2
13:04 47.2 °F /  8.4 °C 23.7 °F /  -4.6 °C 30.21in /  1022.9hPa NNW 2.4mph /  3.9km/h 13mph /  20.9km/h 39.2% 0.00in /  0mm 418 W/m2
13:09 47.4 °F /  8.6 °C 23.3 °F /  -4.8 °C 30.21in /  1022.9hPa NNW 3.6mph /  5.8km/h 14mph /  22.5km/h 38.2% 0.00in /  0mm 387 W/m2
13:14 47.4 °F /  8.6 °C 22.2 °F /  -5.4 °C 30.21in /  1022.9hPa NNW 5.4mph /  8.7km/h 14mph /  22.5km/h 36.6% 0.00in /  0mm 118 W/m2
13:19 47.2 °F /  8.4 °C 21.7 °F /  -5.7 °C 30.21in /  1022.9hPa NNW 6.3mph /  10.1km/h 15mph /  24.1km/h 36.1% 0.00in /  0mm 355 W/m2
13:30 46.9 °F /  8.3 °C 22 °F /  -5.6 °C 30.21in /  1022.9hPa NNW 4mph /  6.4km/h 15mph /  24.1km/h 37% 0.00in /  0mm 139 W/m2
14:00 47.2 °F /  8.4 °C 21.6 °F /  -5.8 °C 30.21in /  1022.9hPa NE 2mph /  3.2km/h 10mph /  16.1km/h 36% 0.00in /  0mm 148 W/m2
14:30 47.2 °F /  8.4 °C 21.6 °F /  -5.8 °C 30.22in /  1023.2hPa NNW 2mph /  3.2km/h 13mph /  20.9km/h 36% 0.00in /  0mm 95 W/m2
15:00 45.9 °F /  7.7 °C 20.5 °F /  -6.4 °C 30.22in /  1023.2hPa NE 2mph /  3.2km/h 12mph /  19.3km/h 36% 0.00in /  0mm 25 W/m2
15:30 45.1 °F /  7.3 °C 20.4 °F /  -6.4 °C 30.22in /  1023.2hPa North 1mph /  1.6km/h 5mph /  8km/h 37% 0.00in /  0mm 19 W/m2
16:04 44 °F /  6.7 °C 18.8 °F /  -7.3 °C 30.22in /  1023.2hPa NNW 0.5mph /  0.8km/h 5mph /  8km/h 36.1% 0.00in /  0mm 19 W/m2
16:09 43.7 °F /  6.5 °C 18.8 °F /  -7.3 °C 30.23in /  1023.6hPa NNW 0.5mph /  0.8km/h 3mph /  4.8km/h 36.4% 0.00in /  0mm 7 W/m2
16:14 43.5 °F /  6.4 °C 18.7 °F /  -7.4 °C 30.23in /  1023.6hPa NNW 0.1mph /  0.2km/h 3mph /  4.8km/h 36.6% 0.00in /  0mm 5 W/m2
16:19 43.3 °F /  6.3 °C 18.8 °F /  -7.3 °C 30.22in /  1023.2hPa NNW 0.3mph /  0.5km/h 3mph /  4.8km/h 37% 0.00in /  0mm 0 W/m2
16:24 43.1 °F /  6.2 °C 18.9 °F /  -7.3 °C 30.22in /  1023.2hPa NNW 0.1mph /  0.2km/h 3mph /  4.8km/h 37.5% 0.00in /  0mm 0 W/m2
16:29 42.8 °F /  6 °C 19 °F /  -7.2 °C 30.22in /  1023.2hPa Calm   3mph /  4.8km/h 38% 0.00in /  0mm 0 W/m2
16:34 42.6 °F /  5.9 °C 18.9 °F /  -7.3 °C 30.22in /  1023.2hPa Calm   3mph /  4.8km/h 38.1% 0.00in /  0mm 0 W/m2
16:39 42.4 °F /  5.8 °C 18.7 °F /  -7.4 °C 30.22in /  1023.2hPa Calm   1mph /  1.6km/h 38.1% 0.00in /  0mm 0 W/m2
16:44 42.1 °F /  5.6 °C 18.9 °F /  -7.3 °C 30.22in /  1023.2hPa NNW 0.5mph /  0.8km/h 3mph /  4.8km/h 38.9% 0.00in /  0mm 0 W/m2
16:49 41.9 °F /  5.5 °C 18.8 °F /  -7.3 °C 30.22in /  1023.2hPa NNW 0.2mph /  0.3km/h 3mph /  4.8km/h 39% 0.00in /  0mm 0 W/m2
16:54 41.7 °F /  5.4 °C 18.6 °F /  -7.4 °C 30.22in /  1023.2hPa NNW 0.1mph /  0.2km/h 3mph /  4.8km/h 39% 0.00in /  0mm 0 W/m2
16:59 41.5 °F /  5.3 °C 18.5 °F /  -7.5 °C 30.23in /  1023.6hPa NNW 0.1mph /  0.2km/h 3mph /  4.8km/h 39.2% 0.00in /  0mm 0 W/m2
17:04 41.2 °F /  5.1 °C 18.5 °F /  -7.5 °C 30.23in /  1023.6hPa NNW 0.7mph /  1.1km/h 4mph /  6.4km/h 39.5% 0.00in /  0mm 0 W/m2
17:09 41 °F /  5 °C 18.5 °F /  -7.5 °C 30.23in /  1023.6hPa Calm   4mph /  6.4km/h 40% 0.00in /  0mm 0 W/m2
17:14 40.8 °F /  4.9 °C 18.4 °F /  -7.6 °C 30.23in /  1023.6hPa NW 0.7mph /  1.1km/h 6mph /  9.7km/h 40% 0.00in /  0mm 0 W/m2
17:19 40.6 °F /  4.8 °C 18.2 °F /  -7.7 °C 30.23in /  1023.6hPa NW 0.4mph /  0.6km/h 6mph /  9.7km/h 40% 0.00in /  0mm 0 W/m2
17:24 40.5 °F /  4.7 °C 18.1 °F /  -7.7 °C 30.24in /  1023.9hPa NW 0.1mph /  0.2km/h 6mph /  9.7km/h 40% 0.00in /  0mm 0 W/m2
17:29 40.3 °F /  4.6 °C 18.4 °F /  -7.6 °C 30.23in /  1023.6hPa NW 0.1mph /  0.2km/h 6mph /  9.7km/h 40.9% 0.00in /  0mm 0 W/m2
17:34 40.1 °F /  4.5 °C 18.3 °F /  -7.6 °C 30.23in /  1023.6hPa Calm   6mph /  9.7km/h 41% 0.00in /  0mm 0 W/m2
17:39 39.8 °F /  4.3 °C 18.1 °F /  -7.7 °C 30.23in /  1023.6hPa NW 0.5mph /  0.8km/h 4mph /  6.4km/h 41% 0.00in /  0mm 0 W/m2
17:44 39.6 °F /  4.2 °C 17.7 °F /  -7.9 °C 30.24in /  1023.9hPa NW 0.3mph /  0.5km/h 4mph /  6.4km/h 40.6% 0.00in /  0mm 0 W/m2
17:49 39.5 °F /  4.2 °C 17.7 °F /  -7.9 °C 30.24in /  1023.9hPa Calm   4mph /  6.4km/h 41% 0.00in /  0mm 0 W/m2
17:54 39.3 °F /  4.1 °C 17.5 °F /  -8.1 °C 30.24in /  1023.9hPa NW 0.1mph /  0.2km/h 4mph /  6.4km/h 40.8% 0.00in /  0mm 0 W/m2
17:59 39.1 °F /  3.9 °C 17.8 °F /  -7.9 °C 30.24in /  1023.9hPa NW 0.1mph /  0.2km/h 4mph /  6.4km/h 41.7% 0.00in /  0mm 0 W/m2
18:04 38.9 °F /  3.8 °C 17.8 °F /  -7.9 °C 30.24in /  1023.9hPa NW 0.1mph /  0.2km/h 4mph /  6.4km/h 42% 0.00in /  0mm 0 W/m2
18:09 38.8 °F /  3.8 °C 17.8 °F /  -7.9 °C 30.24in /  1023.9hPa NW 0.1mph /  0.2km/h 1mph /  1.6km/h 42.2% 0.00in /  0mm 0 W/m2
18:14 38.6 °F /  3.7 °C 18 °F /  -7.8 °C 30.24in /  1023.9hPa Calm   1mph /  1.6km/h 43% 0.00in /  0mm 0 W/m2
18:19 38.4 °F /  3.6 °C 17.9 °F /  -7.8 °C 30.24in /  1023.9hPa Calm   1mph /  1.6km/h 43% 0.00in /  0mm 0 W/m2
18:24 38.2 °F /  3.4 °C 18.2 °F /  -7.7 °C 30.24in /  1023.9hPa Calm   1mph /  1.6km/h 43.9% 0.00in /  0mm 0 W/m2
18:29 38.1 °F /  3.4 °C 18.4 °F /  -7.6 °C 30.24in /  1023.9hPa Calm   1mph /  1.6km/h 44.6% 0.00in /  0mm 0 W/m2
18:34 37.9 °F /  3.3 °C 18.4 °F /  -7.6 °C 30.24in /  1023.9hPa Calm   1mph /  1.6km/h 45% 0.00in /  0mm 0 W/m2
18:39 37.6 °F /  3.1 °C 19.1 °F /  -7.2 °C 30.24in /  1023.9hPa NW 0.2mph /  0.3km/h 2mph /  3.2km/h 46.7% 0.00in /  0mm 0 W/m2
18:44 37.4 °F /  3 °C 20.8 °F /  -6.2 °C 30.24in /  1023.9hPa NW 0.3mph /  0.5km/h 2mph /  3.2km/h 50.7% 0.00in /  0mm 0 W/m2
18:49 37.3 °F /  2.9 °C 21.7 °F /  -5.7 °C 30.24in /  1023.9hPa Calm   2mph /  3.2km/h 52.8% 0.00in /  0mm 0 W/m2
18:54 37.2 °F /  2.9 °C 22.2 °F /  -5.4 °C 30.25in /  1024.3hPa Calm   2mph /  3.2km/h 54.3% 0.00in /  0mm 0 W/m2
18:59 37.1 °F /  2.8 °C 22.7 °F /  -5.2 °C 30.25in /  1024.3hPa NW 0.2mph /  0.3km/h 3mph /  4.8km/h 55.6% 0.00in /  0mm 0 W/m2
19:04 37 °F /  2.8 °C 22.8 °F /  -5.1 °C 30.25in /  1024.3hPa Calm   3mph /  4.8km/h 56% 0.00in /  0mm 0 W/m2
19:09 36.8 °F /  2.7 °C 22.9 °F /  -5.1 °C 30.26in /  1024.6hPa NW 0.1mph /  0.2km/h 1mph /  1.6km/h 56.7% 0.00in /  0mm 0 W/m2
19:14 36.7 °F /  2.6 °C 23 °F /  -5 °C 30.26in /  1024.6hPa Calm   1mph /  1.6km/h 57.2% 0.00in /  0mm 0 W/m2
19:19 36.5 °F /  2.5 °C 23.2 °F /  -4.9 °C 30.26in /  1024.6hPa NW 0.2mph /  0.3km/h 2mph /  3.2km/h 58% 0.00in /  0mm 0 W/m2
19:24 36.4 °F /  2.4 °C 23.7 °F /  -4.6 °C 30.26in /  1024.6hPa NW 0.2mph /  0.3km/h 2mph /  3.2km/h 59.5% 0.00in /  0mm 0 W/m2
19:29 36.3 °F /  2.4 °C 23.3 °F /  -4.8 °C 30.26in /  1024.6hPa Calm   2mph /  3.2km/h 59% 0.00in /  0mm 0 W/m2
19:34 36.2 °F /  2.3 °C 23.2 °F /  -4.9 °C 30.26in /  1024.6hPa NW 0.1mph /  0.2km/h 2mph /  3.2km/h 59% 0.00in /  0mm 0 W/m2
19:39 36.1 °F /  2.3 °C 23.2 °F /  -4.9 °C 30.26in /  1024.6hPa NW 0.2mph /  0.3km/h 2mph /  3.2km/h 59% 0.00in /  0mm 0 W/m2
19:44 36 °F /  2.2 °C 23.1 °F /  -4.9 °C 30.26in /  1024.6hPa NW 0.7mph /  1.1km/h 4mph /  6.4km/h 59% 0.00in /  0mm 0 W/m2
19:49 35.9 °F /  2.2 °C 22.6 °F /  -5.2 °C 30.26in /  1024.6hPa NW 0.7mph /  1.1km/h 5mph /  8km/h 58% 0.00in /  0mm 0 W/m2
19:54 35.8 °F /  2.1 °C 22.2 °F /  -5.4 °C 30.26in /  1024.6hPa NNW 1.7mph /  2.7km/h 5mph /  8km/h 57.3% 0.00in /  0mm 0 W/m2
19:59 35.8 °F /  2.1 °C 21.7 °F /  -5.7 °C 30.26in /  1024.6hPa NNW 1.1mph /  1.8km/h 5mph /  8km/h 56.2% 0.00in /  0mm 0 W/m2
20:04 35.8 °F /  2.1 °C 20.8 °F /  -6.2 °C 30.26in /  1024.6hPa NNW 0.4mph /  0.6km/h 1mph /  1.6km/h 54% 0.00in /  0mm 0 W/m2
20:09 35.8 °F /  2.1 °C 20.8 °F /  -6.2 °C 30.26in /  1024.6hPa NNW 1.3mph /  2.1km/h 6mph /  9.7km/h 54% 0.00in /  0mm 0 W/m2
20:14 35.8 °F /  2.1 °C 20.8 °F /  -6.2 °C 30.26in /  1024.6hPa NNW 0.4mph /  0.6km/h 6mph /  9.7km/h 54% 0.00in /  0mm 0 W/m2
20:19 35.8 °F /  2.1 °C 20.6 °F /  -6.3 °C 30.26in /  1024.6hPa NNW 0.9mph /  1.4km/h 6mph /  9.7km/h 53.6% 0.00in /  0mm 0 W/m2
20:24 35.7 °F /  2.1 °C 20.4 °F /  -6.4 °C 30.26in /  1024.6hPa NNW 0.6mph /  1km/h 6mph /  9.7km/h 53.3% 0.00in /  0mm 0 W/m2
20:29 35.7 °F /  2.1 °C 20.3 °F /  -6.5 °C 30.26in /  1024.6hPa NNW 1.3mph /  2.1km/h 6mph /  9.7km/h 53% 0.00in /  0mm 0 W/m2
20:34 35.6 °F /  2 °C 20.2 °F /  -6.6 °C 30.26in /  1024.6hPa NNW 0.5mph /  0.8km/h 6mph /  9.7km/h 53% 0.00in /  0mm 0 W/m2
20:39 35.5 °F /  1.9 °C 19.9 °F /  -6.7 °C 30.27in /  1024.9hPa NNW 0.3mph /  0.5km/h 3mph /  4.8km/h 52.6% 0.00in /  0mm 0 W/m2
20:44 35.5 °F /  1.9 °C 19.6 °F /  -6.9 °C 30.27in /  1024.9hPa NNW 0.8mph /  1.3km/h 6mph /  9.7km/h 52% 0.00in /  0mm 0 W/m2
20:49 35.4 °F /  1.9 °C 19.5 °F /  -6.9 °C 30.27in /  1024.9hPa NNW 1.1mph /  1.8km/h 6mph /  9.7km/h 52% 0.00in /  0mm 0 W/m2
20:54 35.4 °F /  1.9 °C 19.2 °F /  -7.1 °C 30.26in /  1024.6hPa NNW 0.2mph /  0.3km/h 6mph /  9.7km/h 51.3% 0.00in /  0mm 0 W/m2
20:59 35.3 °F /  1.8 °C 19 °F /  -7.2 °C 30.26in /  1024.6hPa NNW 0.7mph /  1.1km/h 6mph /  9.7km/h 51% 0.00in /  0mm 0 W/m2
21:04 35.3 °F /  1.8 °C 18.7 °F /  -7.4 °C 30.27in /  1024.9hPa NNW 0.8mph /  1.3km/h 6mph /  9.7km/h 50.3% 0.00in /  0mm 0 W/m2
21:09 35.2 °F /  1.8 °C 18.4 °F /  -7.6 °C 30.27in /  1024.9hPa NNW 0.9mph /  1.4km/h 6mph /  9.7km/h 50% 0.00in /  0mm 0 W/m2
21:14 35.2 °F /  1.8 °C 18.4 °F /  -7.6 °C 30.27in /  1024.9hPa NNW 1mph /  1.6km/h 6mph /  9.7km/h 50% 0.00in /  0mm 0 W/m2
21:19 35.1 °F /  1.7 °C 18.2 °F /  -7.7 °C 30.27in /  1024.9hPa NNW 1.5mph /  2.4km/h 7mph /  11.3km/h 49.6% 0.00in /  0mm 0 W/m2
21:24 35 °F /  1.7 °C 18 °F /  -7.8 °C 30.27in /  1024.9hPa NNW 1mph /  1.6km/h 7mph /  11.3km/h 49.3% 0.00in /  0mm 0 W/m2
21:29 35 °F /  1.7 °C 17.8 °F /  -7.9 °C 30.27in /  1024.9hPa NNW 0.3mph /  0.5km/h 7mph /  11.3km/h 49% 0.00in /  0mm 0 W/m2
21:34 34.9 °F /  1.6 °C 17.7 °F /  -7.9 °C 30.28in /  1025.3hPa NNW 0.1mph /  0.2km/h 7mph /  11.3km/h 49% 0.00in /  0mm 0 W/m2
21:39 34.8 °F /  1.6 °C 17.1 °F /  -8.3 °C 30.28in /  1025.3hPa NNW 0.1mph /  0.2km/h 2mph /  3.2km/h 48% 0.00in /  0mm 0 W/m2
21:44 34.7 °F /  1.5 °C 17.1 °F /  -8.3 °C 30.28in /  1025.3hPa Calm   2mph /  3.2km/h 48% 0.00in /  0mm 0 W/m2
21:49 34.6 °F /  1.4 °C 17 °F /  -8.3 °C 30.28in /  1025.3hPa Calm   2mph /  3.2km/h 48.1% 0.00in /  0mm 0 W/m2
21:54 34.5 °F /  1.4 °C 17.3 °F /  -8.2 °C 30.27in /  1024.9hPa Calm   2mph /  3.2km/h 49% 0.00in /  0mm 0 W/m2
21:59 34.4 °F /  1.3 °C 17.3 °F /  -8.2 °C 30.27in /  1024.9hPa Calm   2mph /  3.2km/h 49.2% 0.00in /  0mm 0 W/m2
22:04 34.2 °F /  1.2 °C 17.5 °F /  -8.1 °C 30.28in /  1025.3hPa NNW 0.1mph /  0.2km/h 3mph /  4.8km/h 50% 0.00in /  0mm 0 W/m2
22:09 34.1 °F /  1.2 °C 17.4 °F /  -8.1 °C 30.27in /  1024.9hPa Calm   3mph /  4.8km/h 50% 0.00in /  0mm 0 W/m2
22:14 33.9 °F /  1.1 °C 17.3 °F /  -8.2 °C 30.28in /  1025.3hPa NNW 0.4mph /  0.6km/h 4mph /  6.4km/h 50.1% 0.00in /  0mm 0 W/m2
22:19 33.8 °F /  1 °C 17.5 °F /  -8.1 °C 30.28in /  1025.3hPa NNW 0.1mph /  0.2km/h 4mph /  6.4km/h 50.9% 0.00in /  0mm 0 W/m2
22:24 33.7 °F /  0.9 °C 17.5 °F /  -8.1 °C 30.28in /  1025.3hPa NNW 0.7mph /  1.1km/h 4mph /  6.4km/h 51% 0.00in /  0mm 0 W/m2
22:29 33.6 °F /  0.9 °C 17.4 °F /  -8.1 °C 30.28in /  1025.3hPa NNW 0.5mph /  0.8km/h 5mph /  8km/h 51% 0.00in /  0mm 0 W/m2
22:34 33.5 °F /  0.8 °C 17.3 °F /  -8.2 °C 30.28in /  1025.3hPa Calm   5mph /  8km/h 51% 0.00in /  0mm 0 W/m2
22:39 33.4 °F /  0.8 °C 17.2 °F /  -8.2 °C 30.28in /  1025.3hPa Calm   1mph /  1.6km/h 51% 0.00in /  0mm 0 W/m2
22:44 33.3 °F /  0.7 °C 17.1 °F /  -8.3 °C 30.28in /  1025.3hPa NNW 0.1mph /  0.2km/h 3mph /  4.8km/h 51% 0.00in /  0mm 0 W/m2
22:49 33.2 °F /  0.7 °C 17 °F /  -8.3 °C 30.28in /  1025.3hPa NNW 0.2mph /  0.3km/h 4mph /  6.4km/h 51% 0.00in /  0mm 0 W/m2
22:54 33.1 °F /  0.6 °C 17 °F /  -8.3 °C 30.29in /  1025.6hPa NNW 0.4mph /  0.6km/h 6mph /  9.7km/h 51% 0.00in /  0mm 0 W/m2
22:59 33.1 °F /  0.6 °C 16.9 °F /  -8.4 °C 30.29in /  1025.6hPa NNW 0.1mph /  0.2km/h 6mph /  9.7km/h 51% 0.00in /  0mm 0 W/m2
23:09 33 °F /  0.6 °C 16.8 °F /  -8.4 °C 30.29in /  1025.6hPa Calm     50.9% 0.00in /  0mm 0 W/m2
23:14 32.9 °F /  0.5 °C 16.8 °F /  -8.4 °C 30.29in /  1025.6hPa North 0.1mph /  0.2km/h 1mph /  1.6km/h 51% 0.00in /  0mm 0 W/m2
23:19 32.9 °F /  0.5 °C 16.4 °F /  -8.7 °C 30.29in /  1025.6hPa North 0.2mph /  0.3km/h 2mph /  3.2km/h 50.4% 0.00in /  0mm 0 W/m2
23:24 32.8 °F /  0.4 °C 16.2 °F /  -8.8 °C 30.29in /  1025.6hPa North 0.7mph /  1.1km/h 7mph /  11.3km/h 50% 0.00in /  0mm 0 W/m2
23:29 32.8 °F /  0.4 °C 16.2 °F /  -8.8 °C 30.29in /  1025.6hPa NNW 0.2mph /  0.3km/h 7mph /  11.3km/h 50% 0.00in /  0mm 0 W/m2
23:34 32.8 °F /  0.4 °C 16.3 °F /  -8.7 °C 30.29in /  1025.6hPa NNW 0.6mph /  1km/h 7mph /  11.3km/h 50.2% 0.00in /  0mm 0 W/m2
23:39 32.8 °F /  0.4 °C 16.4 °F /  -8.7 °C 30.28in /  1025.3hPa NNW 0.6mph /  1km/h 3mph /  4.8km/h 50.4% 0.00in /  0mm 0 W/m2
23:44 32.7 °F /  0.4 °C 16.1 °F /  -8.8 °C 30.28in /  1025.3hPa NNW 0.2mph /  0.3km/h 3mph /  4.8km/h 50% 0.00in /  0mm 0 W/m2
23:49 32.7 °F /  0.4 °C 16.1 °F /  -8.8 °C 30.28in /  1025.3hPa NNW 0.2mph /  0.3km/h 3mph /  4.8km/h 50% 0.00in /  0mm 0 W/m2
23:54 32.6 °F /  0.3 °C 16.1 °F /  -8.8 °C 30.29in /  1025.6hPa Calm   3mph /  4.8km/h 50.2% 0.00in /  0mm 0 W/m2
23:59 32.5 °F /  0.3 °C 16 °F /  -8.9 °C 30.29in /  1025.6hPa NNW 0.2mph /  0.3km/h 3mph /  4.8km/h 50% 0.00in /  0mm 0 W/m2
Hartford County Weather
Compliments of Weather Underground - 4 mb